Time;durP1;ratioP1;P1;durP2;ratioP2;P2;SDS_P1;SDS_P2;PMS_P1;PMS_P2;Temp;Humidity;BMP_temperature;BMP_pressure;BME280_temperature;BME280_humidity;BME280_pressure;Samples;Min_cycle;Max_cycle;Signal;HPM_P1;HPM_P2
2021/08/05 00:01:46;;;;;;;7.97;2.58;;;;;;;16.25;86.62;98383.41;5016038;28;20029;-69
2021/08/05 00:04:12;;;;;;;3.78;2.15;;;;;;;16.18;87.17;98374.56;5040773;28;20044;-69
2021/08/05 00:06:37;;;;;;;3.40;1.90;;;;;;;16.28;86.96;98380.16;5033040;28;20433;-69
2021/08/05 00:09:02;;;;;;;4.28;1.90;;;;;;;16.32;86.38;98383.22;5032746;28;20067;-69
2021/08/05 00:11:28;;;;;;;4.43;2.17;;;;;;;16.29;85.87;98376.34;5034086;28;20570;-69
2021/08/05 00:13:53;;;;;;;4.25;2.15;;;;;;;16.25;86.19;98364.28;5033327;28;20083;-69
2021/08/05 00:16:18;;;;;;;4.78;2.35;;;;;;;16.18;86.48;98369.91;5033558;28;20144;-69
2021/08/05 00:18:44;;;;;;;3.53;2.47;;;;;;;16.08;87.04;98356.13;5031156;28;20026;-69
2021/08/05 00:21:09;;;;;;;3.70;2.13;;;;;;;16.03;87.76;98357.94;5034394;28;20052;-69
2021/08/05 00:23:35;;;;;;;3.10;1.90;;;;;;;15.97;87.93;98349.69;5032745;28;20505;-69
2021/08/05 00:26:00;;;;;;;3.38;2.15;;;;;;;15.94;88.65;98352.91;5015807;28;20116;-69
2021/08/05 00:28:26;;;;;;;3.05;2.03;;;;;;;15.88;89.37;98353.09;5033657;28;20506;-69
2021/08/05 00:30:51;;;;;;;3.67;2.38;;;;;;;15.85;89.64;98345.38;5024382;28;20029;-69
2021/08/05 00:33:17;;;;;;;4.85;2.50;;;;;;;15.83;90.54;98350.28;5032725;28;20096;-69
2021/08/05 00:35:42;;;;;;;3.78;2.65;;;;;;;15.75;91.02;98343.34;5033335;28;20630;-69
2021/08/05 00:38:07;;;;;;;4.75;2.60;;;;;;;15.73;90.40;98321.75;5034932;28;20026;-69
2021/08/05 00:40:33;;;;;;;3.63;2.40;;;;;;;15.78;90.96;98351.84;5032624;28;20029;-69
2021/08/05 00:42:58;;;;;;;2.80;2.33;;;;;;;15.81;90.70;98350.53;5033035;28;20112;-69
2021/08/05 00:45:24;;;;;;;5.78;2.70;;;;;;;15.62;90.54;98313.66;5031579;28;20025;-69
2021/08/05 00:47:49;;;;;;;4.65;2.50;;;;;;;15.77;89.99;98343.91;5032234;28;20055;-69
2021/08/05 00:50:14;;;;;;;3.95;2.55;;;;;;;15.71;89.17;98336.72;5029130;28;20128;-69
2021/08/05 00:52:40;;;;;;;5.80;3.10;;;;;;;15.71;88.45;98359.34;5022400;28;20079;-69
2021/08/05 00:55:05;;;;;;;4.85;2.42;;;;;;;15.71;87.47;98355.81;5025859;28;20116;-69
2021/08/05 00:57:31;;;;;;;6.10;2.70;;;;;;;15.56;87.55;98337.25;5019698;28;20091;-69
2021/08/05 00:59:57;;;;;;;5.60;2.72;;;;;;;15.74;87.29;98361.59;5034623;28;20041;-69
2021/08/05 01:02:28;;;;;;;3.90;2.83;;;;;;;15.83;87.83;98367.47;5047971;28;20111;-69
2021/08/05 01:04:55;;;;;;;4.15;2.60;;;;;;;15.81;89.19;98353.25;5033891;28;20095;-69
2021/08/05 01:07:41;;;;;;;4.30;2.40;;;;;;;16.09;90.04;98362.44;5033650;28;20459;-69
2021/08/05 01:10:30;;;;;;;4.30;2.50;;;;;;;15.80;91.03;98346.16;4995536;28;20033;-69
2021/08/05 01:13:13;;;;;;;;;;;;;;;15.83;91.43;98355.75;5022213;28;20025;-69
2021/08/05 01:15:38;;;;;;;7.03;2.60;;;;;;;15.81;91.48;98355.97;5008691;28;20460;-69
2021/08/05 01:18:29;;;;;;;5.05;2.30;;;;;;;15.77;91.91;98343.91;5031892;28;20117;-69
2021/08/05 01:20:55;;;;;;;3.72;2.28;;;;;;;15.75;91.59;98340.63;5024433;28;20044;-69
2021/08/05 01:23:42;;;;;;;3.85;2.35;;;;;;;15.72;92.05;98338.38;5032143;28;20100;-69
2021/08/05 01:26:12;;;;;;;4.82;2.40;;;;;;;15.69;91.68;98338.88;5012804;28;20034;-69
2021/08/05 01:28:40;;;;;;;3.72;2.38;;;;;;;15.64;91.60;98339.59;5022728;28;20052;-69
2021/08/05 01:31:07;;;;;;;6.30;2.90;;;;;;;15.46;91.18;98315.31;5031957;28;20072;-69
2021/08/05 01:33:35;;;;;;;4.13;2.75;;;;;;;15.57;89.89;98338.94;5033058;28;20308;-69
2021/08/05 01:36:02;;;;;;;4.90;2.67;;;;;;;15.64;89.32;98342.31;5014522;28;20471;-69
2021/08/05 01:38:29;;;;;;;3.78;2.22;;;;;;;15.85;90.06;98345.38;5030838;28;20099;-69
2021/08/05 01:40:54;;;;;;;3.80;2.28;;;;;;;15.96;89.59;98339.84;5032243;28;20072;-69
2021/08/05 01:43:21;;;;;;;3.30;2.30;;;;;;;15.86;90.47;98347.06;5030948;28;20029;-69
2021/08/05 01:45:48;;;;;;;4.57;2.33;;;;;;;15.64;90.21;98314.19;5013052;28;20017;-69
2021/08/05 01:48:14;;;;;;;5.45;2.10;;;;;;;15.72;90.65;98341.13;5026501;28;20049;-69
2021/08/05 01:50:42;;;;;;;4.78;2.30;;;;;;;15.65;91.04;98335.78;5032137;28;20036;-69
2021/08/05 01:53:08;;;;;;;6.30;2.53;;;;;;;15.76;90.21;98342.25;5030802;28;20036;-69
2021/08/05 01:55:34;;;;;;;4.18;2.40;;;;;;;15.68;90.60;98334.47;5031945;28;20025;-69
2021/08/05 01:57:59;;;;;;;5.32;2.55;;;;;;;15.54;91.20;98328.53;5032935;28;20413;-69
2021/08/05 02:00:25;;;;;;;5.28;2.25;;;;;;;15.40;92.23;98314.34;5012440;28;20033;-69
2021/08/05 02:02:53;;;;;;;2.95;2.25;;;;;;;15.41;93.25;98326.13;5023093;28;20030;-69
2021/08/05 02:05:32;;;;;;;7.18;2.58;;;;;;;15.28;94.26;98332.69;5029062;28;20025;-69
2021/08/05 02:08:05;;;;;;;5.70;2.50;;;;;;;15.23;94.68;98335.34;5036286;28;20036;-69
2021/08/05 02:10:35;;;;;;;7.97;2.67;;;;;;;15.16;95.08;98331.94;5031879;28;20068;-69
2021/08/05 02:13:05;;;;;;;5.30;2.72;;;;;;;15.15;95.24;98335.72;5097068;22;20053;-71
2021/08/05 02:15:34;;;;;;;4.80;2.95;;;;;;;15.11;95.23;98338.09;4975937;28;20124;-73
2021/08/05 02:18:00;;;;;;;;;;;;;;;15.09;94.86;98332.91;4995130;28;20085;-70
2021/08/05 02:20:26;;;;;;;6.70;2.70;;;;;;;15.01;94.40;98316.13;4987914;28;19918;-70
2021/08/05 02:22:51;;;;;;;5.10;2.35;;;;;;;14.96;94.54;98299.66;5004769;28;20034;-71
2021/08/05 02:25:17;;;;;;;6.43;2.85;;;;;;;15.20;94.21;98324.94;4993120;28;20029;-70
2021/08/05 02:27:44;;;;;;;6.57;2.47;;;;;;;15.29;92.71;98318.81;4991935;28;20038;-71
2021/08/05 02:30:10;;;;;;;4.85;2.80;;;;;;;15.20;92.88;98314.03;4990673;28;20555;-71
2021/08/05 02:32:37;;;;;;;4.63;2.70;;;;;;;15.14;93.22;98283.09;4990380;28;20035;-71
2021/08/05 02:35:05;;;;;;;4.78;2.72;;;;;;;15.10;94.81;98320.94;4986365;28;20049;-71
2021/08/05 02:37:31;;;;;;;3.45;2.20;;;;;;;15.02;95.27;98313.16;4991763;28;20014;-70
2021/08/05 02:39:56;;;;;;;5.80;2.42;;;;;;;14.78;96.38;98319.78;4990318;28;20030;-71
2021/08/05 02:42:22;;;;;;;3.75;2.40;;;;;;;14.58;97.41;98312.84;4991870;28;20064;-70
2021/08/05 02:44:48;;;;;;;3.75;2.42;;;;;;;14.47;98.36;98316.41;4964517;28;20066;-71
2021/08/05 02:47:14;;;;;;;3.70;2.25;;;;;;;14.33;99.08;98313.13;4957703;28;20522;-71
2021/08/05 02:49:40;;;;;;;4.05;2.65;;;;;;;14.37;99.93;98300.69;4989066;28;20042;-71
2021/08/05 02:52:06;;;;;;;4.65;2.80;;;;;;;14.55;99.60;98296.19;4990248;28;20109;-71
2021/08/05 02:54:32;;;;;;;5.10;3.20;;;;;;;14.48;98.75;98297.09;4991982;28;20106;-71
2021/08/05 02:56:58;;;;;;;4.18;2.40;;;;;;;14.19;98.84;98285.34;4980799;28;20018;-71
2021/08/05 02:59:26;;;;;;;5.97;2.47;;;;;;;14.05;99.34;98280.41;4992144;28;20081;-71
2021/08/05 03:01:52;;;;;;;3.70;2.42;;;;;;;13.99;100.00;98285.72;4992330;28;20025;-71
2021/08/05 03:04:18;;;;;;;5.60;2.92;;;;;;;13.97;100.00;98295.19;4997304;28;20011;-69
2021/08/05 03:06:45;;;;;;;4.35;2.70;;;;;;;13.97;100.00;98303.34;4996795;28;20205;-68
2021/08/05 03:09:10;;;;;;;4.30;2.63;;;;;;;13.89;100.00;98304.53;5012237;28;20030;-70
2021/08/05 03:11:36;;;;;;;5.10;2.60;;;;;;;13.75;100.00;98292.22;4998352;28;20026;-70
2021/08/05 03:14:01;;;;;;;4.82;2.85;;;;;;;13.63;100.00;98289.53;5014585;28;20102;-71
2021/08/05 03:16:26;;;;;;;5.82;2.72;;;;;;;13.55;100.00;98298.03;4999875;28;20109;-70
2021/08/05 03:18:52;;;;;;;5.68;2.88;;;;;;;13.41;100.00;98274.84;4991087;28;20488;-71
2021/08/05 03:21:17;;;;;;;3.65;2.70;;;;;;;13.41;100.00;98291.13;4991375;28;20054;-71
2021/08/05 03:23:42;;;;;;;6.45;3.67;;;;;;;13.40;100.00;98301.19;4977535;28;20069;-71
2021/08/05 03:26:08;;;;;;;8.52;3.40;;;;;;;13.47;100.00;98295.66;4977675;28;20030;-70
2021/08/05 03:28:33;;;;;;;5.38;3.00;;;;;;;13.47;100.00;98301.91;4986984;28;20110;-71
2021/08/05 03:30:59;;;;;;;12.25;2.55;;;;;;;13.41;100.00;98285.72;4988110;28;20030;-71
2021/08/05 03:33:24;;;;;;;6.88;3.05;;;;;;;13.47;100.00;98293.75;4994425;28;20029;-71
2021/08/05 03:35:49;;;;;;;5.97;2.78;;;;;;;13.46;100.00;98277.69;4986546;28;20042;-71
2021/08/05 03:38:15;;;;;;;5.28;3.00;;;;;;;13.51;100.00;98291.41;4991719;28;20077;-71
2021/08/05 03:40:40;;;;;;;4.88;2.72;;;;;;;13.70;100.00;98292.97;4994962;28;20062;-70
2021/08/05 03:43:05;;;;;;;3.80;2.50;;;;;;;13.64;100.00;98293.88;4994237;28;20033;-71
2021/08/05 03:45:31;;;;;;;5.70;3.00;;;;;;;13.52;100.00;98271.31;4994262;28;20105;-71
2021/08/05 03:47:56;;;;;;;5.50;3.63;;;;;;;13.50;100.00;98289.75;4991286;28;20057;-70
2021/08/05 03:50:22;;;;;;;7.38;3.78;;;;;;;13.38;100.00;98298.69;4987350;28;20050;-71
2021/08/05 03:52:47;;;;;;;9.82;3.65;;;;;;;13.28;100.00;98290.31;4994529;28;20037;-71
2021/08/05 03:55:13;;;;;;;6.90;3.10;;;;;;;12.86;100.00;98257.72;4976872;28;20022;-70
2021/08/05 03:57:40;;;;;;;7.97;3.38;;;;;;;13.06;100.00;98310.88;4992138;28;20026;-70
2021/08/05 04:00:08;;;;;;;7.72;3.28;;;;;;;12.80;100.00;98282.22;4992950;28;20026;-72
2021/08/05 04:02:33;;;;;;;4.53;2.83;;;;;;;12.83;100.00;98296.16;4974915;28;20117;-70
2021/08/05 04:04:59;;;;;;;5.72;2.85;;;;;;;12.84;100.00;98303.25;4985105;28;20022;-75
2021/08/05 04:07:24;;;;;;;5.10;3.22;;;;;;;12.96;100.00;98307.91;4960226;28;20157;-75
2021/08/05 04:09:49;;;;;;;4.65;3.05;;;;;;;12.93;100.00;98296.44;4991159;28;20022;-77
2021/08/05 04:12:14;;;;;;;4.07;2.60;;;;;;;12.96;100.00;98305.19;4988623;28;20506;-74
2021/08/05 04:14:40;;;;;;;5.35;2.72;;;;;;;12.87;100.00;98296.53;4976568;28;20030;-73
2021/08/05 04:17:05;;;;;;;5.55;2.63;;;;;;;13.06;100.00;98302.75;4979688;28;20031;-75
2021/08/05 04:19:31;;;;;;;7.78;2.65;;;;;;;13.09;100.00;98283.25;4983377;28;20033;-74
2021/08/05 04:21:56;;;;;;;4.70;2.72;;;;;;;12.99;99.88;98288.41;4987895;28;20034;-74
2021/08/05 04:24:21;;;;;;;6.32;2.83;;;;;;;13.08;100.00;98306.88;4974570;28;20034;-74
2021/08/05 04:26:47;;;;;;;4.00;2.70;;;;;;;13.11;100.00;98292.00;4990274;28;20037;-75
2021/08/05 04:29:12;;;;;;;4.53;2.50;;;;;;;13.25;99.26;98293.44;4994303;28;20034;-70
2021/08/05 04:31:37;;;;;;;5.03;2.97;;;;;;;13.20;99.14;98290.59;4991142;28;20030;-71
2021/08/05 04:34:08;;;;;;;5.97;2.70;;;;;;;13.17;99.51;98296.50;4985235;28;20030;-75
2021/08/05 04:36:33;;;;;;;5.03;2.85;;;;;;;13.36;99.95;98305.41;4989111;28;20049;-75
2021/08/05 04:38:58;;;;;;;4.55;2.63;;;;;;;13.10;99.59;98260.50;4977433;28;20022;-76
2021/08/05 04:41:24;;;;;;;10.88;3.47;;;;;;;13.27;99.89;98294.06;4993591;28;20034;-73
2021/08/05 04:43:51;;;;;;;8.15;2.80;;;;;;;13.32;99.71;98294.22;4976257;28;20030;-76
2021/08/05 04:46:16;;;;;;;8.52;3.40;;;;;;;13.52;99.20;98298.50;4994124;28;20030;-77
2021/08/05 04:48:42;;;;;;;5.82;2.95;;;;;;;13.58;98.32;98281.25;4992356;28;20023;-74
2021/08/05 04:51:07;;;;;;;7.47;3.05;;;;;;;13.75;97.06;98278.63;4976798;28;20034;-70
2021/08/05 04:53:32;;;;;;;8.50;3.00;;;;;;;14.20;95.21;98313.34;4974995;28;20077;-69
2021/08/05 04:55:58;;;;;;;5.30;2.72;;;;;;;14.25;94.36;98305.31;4988803;28;20105;-73
2021/08/05 04:58:23;;;;;;;3.85;2.25;;;;;;;14.45;93.52;98313.09;4992854;28;20633;-71
2021/08/05 05:00:50;;;;;;;4.40;2.92;;;;;;;14.58;93.00;98312.84;4993107;28;20401;-69
2021/08/05 05:03:15;;;;;;;5.88;2.90;;;;;;;14.46;92.72;98293.81;4992960;28;20109;-74
2021/08/05 05:05:41;;;;;;;5.22;2.67;;;;;;;14.61;91.56;98293.28;4976800;28;20118;-74
2021/08/05 05:08:20;;;;;;;10.60;2.83;;;;;;;14.81;90.62;98313.84;4987857;28;20041;-70
2021/08/05 05:10:46;;;;;;;;;;;;;;;14.84;90.79;98307.91;4966505;28;20500;-75
2021/08/05 05:13:12;;;;;;;4.88;2.35;;;;;;;14.87;90.24;98308.25;4991131;28;19925;-77
2021/08/05 05:15:38;;;;;;;3.80;2.35;;;;;;;14.87;89.94;98305.50;4975731;28;20034;-69
2021/08/05 05:18:04;;;;;;;4.07;2.42;;;;;;;14.97;89.09;98299.44;4994190;28;20034;-73
2021/08/05 05:20:30;;;;;;;7.82;2.40;;;;;;;15.09;88.70;98313.84;4984378;28;20547;-72
2021/08/05 05:22:55;;;;;;;4.43;2.35;;;;;;;15.06;88.46;98292.53;4966668;28;20022;-72
2021/08/05 05:25:20;;;;;;;5.53;2.50;;;;;;;15.22;88.76;98311.84;4977100;28;20154;-71
2021/08/05 05:27:46;;;;;;;4.22;2.20;;;;;;;15.19;89.23;98301.47;4991569;28;20121;-70
2021/08/05 05:30:12;;;;;;;5.05;2.10;;;;;;;15.11;89.51;98303.50;4984032;28;20103;-75
2021/08/05 05:32:38;;;;;;;4.43;2.53;;;;;;;15.22;89.31;98301.81;4969878;28;20075;-70
2021/08/05 05:35:05;;;;;;;4.97;2.80;;;;;;;15.07;89.50;98291.47;4970195;28;20107;-71
2021/08/05 05:37:30;;;;;;;5.43;2.35;;;;;;;15.22;89.51;98284.59;4991639;28;20392;-68
2021/08/05 05:39:56;;;;;;;2.53;1.90;;;;;;;15.35;89.36;98287.00;4971198;28;20022;-70
2021/08/05 05:42:22;;;;;;;4.93;2.55;;;;;;;15.48;89.30;98299.50;4992288;28;20025;-70
2021/08/05 05:44:48;;;;;;;5.63;2.13;;;;;;;15.46;89.02;98291.59;4973946;28;20030;-71
2021/08/05 05:47:13;;;;;;;9.27;2.35;;;;;;;15.45;88.71;98294.53;4992668;28;20373;-71
2021/08/05 05:49:41;;;;;;;5.63;2.40;;;;;;;15.39;89.18;98292.81;4992301;28;20042;-70
2021/08/05 05:52:06;;;;;;;7.30;2.13;;;;;;;15.55;89.16;98306.44;4986404;28;20093;-74
2021/08/05 05:54:32;;;;;;;2.90;2.30;;;;;;;15.36;89.50;98280.50;4973470;28;20528;-72
2021/08/05 05:56:57;;;;;;;4.30;2.20;;;;;;;15.57;89.24;98296.13;4992255;28;20383;-74
2021/08/05 05:59:22;;;;;;;6.43;2.50;;;;;;;15.66;88.97;98290.25;4992956;28;20034;-73
2021/08/05 06:01:48;;;;;;;3.78;2.13;;;;;;;15.84;87.84;98268.19;4975348;28;20057;-73
2021/08/05 06:04:13;;;;;;;3.80;2.50;;;;;;;16.36;85.90;98270.53;4986489;28;20395;-74
2021/08/05 06:06:38;;;;;;;3.90;1.95;;;;;;;16.75;83.83;98266.88;4973309;28;20059;-74
2021/08/05 06:09:05;;;;;;;3.53;2.35;;;;;;;17.03;81.85;98276.78;4978549;28;20019;-80
2021/08/05 06:11:31;;;;;;;3.72;2.15;;;;;;;17.36;80.75;98289.38;4979601;28;20034;-75
2021/08/05 06:13:56;;;;;;;4.72;2.17;;;;;;;17.40;79.56;98270.56;4975616;28;20442;-76
2021/08/05 06:16:22;;;;;;;4.90;2.30;;;;;;;17.76;78.51;98288.03;4974449;28;20440;-76
2021/08/05 06:18:48;;;;;;;6.45;2.63;;;;;;;17.79;77.48;98295.78;5002976;28;20026;-74
2021/08/05 06:21:14;;;;;;;6.80;3.13;;;;;;;18.01;76.99;98273.75;4974477;28;20076;-69
2021/08/05 06:23:39;;;;;;;6.50;2.47;;;;;;;18.45;73.91;98278.91;4991199;28;20062;-72
2021/08/05 06:26:05;;;;;;;3.17;2.38;;;;;;;19.11;71.72;98291.19;4991194;28;20030;-73
2021/08/05 06:28:33;;;;;;;4.00;2.40;;;;;;;19.77;68.16;98274.78;4975278;28;20037;-74
2021/08/05 06:31:03;;;;;;;6.55;2.13;;;;;;;20.80;64.98;98280.81;4988898;28;20034;-70
2021/08/05 06:33:29;;;;;;;2.88;2.25;;;;;;;21.61;61.73;98279.47;4975185;28;20149;-73
2021/08/05 06:35:54;;;;;;;3.47;2.42;;;;;;;23.44;56.18;98285.03;4991331;28;20117;-69
2021/08/05 06:38:20;;;;;;;5.28;2.60;;;;;;;24.11;53.67;98273.69;4985809;28;20022;-69
2021/08/05 06:40:45;;;;;;;4.00;2.50;;;;;;;24.26;52.48;98292.75;4994457;28;20034;-73
2021/08/05 06:43:11;;;;;;;6.75;2.42;;;;;;;23.31;54.73;98270.88;4995430;28;20038;-77
2021/08/05 06:45:36;;;;;;;4.75;2.70;;;;;;;23.55;54.34;98280.97;4996220;28;20081;-73
2021/08/05 06:48:02;;;;;;;5.65;2.85;;;;;;;25.06;50.00;98283.09;4992128;28;20472;-68
2021/08/05 06:50:27;;;;;;;5.32;2.15;;;;;;;27.24;46.15;98275.97;4994801;28;20042;-67
2021/08/05 06:52:53;;;;;;;4.85;2.30;;;;;;;26.87;44.68;98270.66;4995595;28;20035;-68
2021/08/05 06:55:19;;;;;;;3.80;2.15;;;;;;;24.02;51.19;98273.56;4991450;28;20093;-67
2021/08/05 06:57:44;;;;;;;3.67;2.47;;;;;;;22.96;54.28;98272.19;4976561;28;20097;-67
2021/08/05 07:00:10;;;;;;;2.80;2.10;;;;;;;23.02;54.71;98264.69;4988411;28;20033;-66
2021/08/05 07:02:35;;;;;;;4.82;2.08;;;;;;;23.19;53.98;98267.75;4983265;28;20506;-67
2021/08/05 07:05:04;;;;;;;3.47;2.28;;;;;;;23.06;54.13;98263.81;4981544;28;20057;-70
2021/08/05 07:07:30;;;;;;;4.75;2.05;;;;;;;22.40;55.69;98276.50;4974869;28;20034;-70
2021/08/05 07:09:57;;;;;;;6.50;2.70;;;;;;;21.55;59.15;98269.59;4995310;28;20128;-71
2021/08/05 07:12:23;;;;;;;3.40;2.10;;;;;;;21.44;59.29;98248.78;4993126;28;20500;-73
2021/08/05 07:14:48;;;;;;;3.47;2.17;;;;;;;20.99;61.81;98261.75;4977902;28;20040;-73
2021/08/05 07:17:15;;;;;;;3.60;2.58;;;;;;;21.41;60.78;98261.19;4973921;28;20020;-72
2021/08/05 07:19:41;;;;;;;5.70;2.63;;;;;;;21.83;58.85;98258.91;4996957;28;20451;-73
2021/08/05 07:22:07;;;;;;;4.53;1.98;;;;;;;22.04;59.06;98260.34;4996186;28;20069;-72
2021/08/05 07:24:32;;;;;;;4.88;2.08;;;;;;;22.13;58.22;98274.28;4994817;28;20057;-73
2021/08/05 07:26:57;;;;;;;5.53;2.33;;;;;;;21.97;57.31;98243.31;4977964;28;20033;-73
2021/08/05 07:29:23;;;;;;;4.10;2.05;;;;;;;22.06;58.25;98247.09;4996108;28;20081;-73
2021/08/05 07:31:48;;;;;;;5.25;2.15;;;;;;;21.77;59.59;98262.78;4994034;28;20546;-69
2021/08/05 07:34:13;;;;;;;3.80;2.05;;;;;;;21.95;58.81;98258.50;4989906;28;20030;-75
2021/08/05 07:36:39;;;;;;;7.90;2.55;;;;;;;21.92;58.42;98270.09;4979238;28;20149;-73
2021/08/05 07:39:10;;;;;;;3.63;2.33;;;;;;;21.84;58.43;98255.03;4972014;28;20077;-71
2021/08/05 07:41:36;;;;;;;4.13;2.47;;;;;;;21.98;58.27;98264.25;4960074;28;20080;-68
2021/08/05 07:44:01;;;;;;;3.83;2.63;;;;;;;21.88;58.41;98248.66;4994400;28;20388;-68
2021/08/05 07:46:27;;;;;;;4.05;2.13;;;;;;;22.24;58.18;98247.47;4991766;28;20034;-70
2021/08/05 07:48:52;;;;;;;5.78;2.80;;;;;;;22.41;57.06;98247.81;4989492;28;20100;-69
2021/08/05 07:51:17;;;;;;;2.53;1.95;;;;;;;23.43;55.43;98269.59;4990181;28;20030;-67
2021/08/05 07:53:43;;;;;;;5.70;2.33;;;;;;;23.30;53.84;98254.63;4987788;28;20037;-66
2021/08/05 07:56:08;;;;;;;6.40;2.90;;;;;;;24.50;51.93;98259.41;4989319;28;20049;-71
2021/08/05 07:58:33;;;;;;;3.58;2.55;;;;;;;24.69;50.85;98237.97;4992903;28;20105;-69
2021/08/05 08:00:59;;;;;;;3.45;2.28;;;;;;;24.79;51.33;98252.72;4985163;28;20037;-69
2021/08/05 08:03:24;;;;;;;4.22;2.83;;;;;;;23.89;51.72;98255.03;4979493;28;20429;-68
2021/08/05 08:05:49;;;;;;;5.47;2.80;;;;;;;23.87;52.14;98254.50;4977185;28;20113;-66
2021/08/05 08:08:16;;;;;;;3.63;2.38;;;;;;;24.81;50.84;98247.69;4991953;28;20037;-66
2021/08/05 08:10:42;;;;;;;4.82;1.95;;;;;;;26.27;48.01;98245.50;4994993;28;20518;-67
2021/08/05 08:13:07;;;;;;;8.90;2.15;;;;;;;25.89;47.59;98241.25;4996443;28;20093;-73
2021/08/05 08:15:33;;;;;;;5.75;2.60;;;;;;;26.47;45.70;98244.09;4981249;28;20041;-70
2021/08/05 08:17:59;;;;;;;7.07;2.60;;;;;;;25.85;47.46;98244.97;4988726;28;20014;-68
2021/08/05 08:20:24;;;;;;;5.75;2.40;;;;;;;25.69;48.42;98255.59;4993424;28;20080;-68
2021/08/05 08:22:51;;;;;;;3.80;2.00;;;;;;;25.57;48.05;98248.69;4993958;28;20026;-73
2021/08/05 08:25:17;;;;;;;6.40;2.50;;;;;;;25.10;49.87;98252.84;4992742;28;20057;-69
2021/08/05 08:27:43;;;;;;;5.00;2.45;;;;;;;25.57;48.52;98254.22;4993407;28;20057;-64
2021/08/05 08:30:11;;;;;;;5.07;2.35;;;;;;;24.21;51.64;98243.09;4992818;28;20049;-67
2021/08/05 08:32:37;;;;;;;9.85;2.47;;;;;;;24.05;52.33;98248.94;4994040;28;20062;-66
2021/08/05 08:35:03;;;;;;;3.63;2.45;;;;;;;24.05;51.84;98243.41;4976181;28;20019;-66
2021/08/05 08:37:29;;;;;;;5.25;2.42;;;;;;;24.81;50.75;98239.38;4990361;28;20022;-70
2021/08/05 08:39:54;;;;;;;5.20;1.90;;;;;;;25.43;50.79;98239.63;4993085;28;20028;-68
2021/08/05 08:42:20;;;;;;;11.07;2.22;;;;;;;25.80;50.04;98221.75;4990471;28;20041;-68
2021/08/05 08:44:45;;;;;;;3.13;1.90;;;;;;;26.11;48.48;98243.13;4991909;28;20034;-66
2021/08/05 08:47:11;;;;;;;6.30;1.95;;;;;;;25.92;47.15;98234.25;4993511;28;20038;-70
2021/08/05 08:49:38;;;;;;;2.22;1.50;;;;;;;26.15;46.75;98232.25;4984283;28;20027;-69
2021/08/05 08:52:05;;;;;;;10.48;2.25;;;;;;;25.57;48.12;98236.78;4962114;28;20050;-70
2021/08/05 08:54:33;;;;;;;3.60;2.28;;;;;;;25.98;46.98;98231.00;4960179;28;20025;-65
2021/08/05 08:56:59;;;;;;;4.90;1.92;;;;;;;26.72;45.86;98218.38;4992729;28;20037;-67
2021/08/05 08:59:25;;;;;;;6.47;1.77;;;;;;;26.97;44.92;98196.56;4993668;28;20038;-64
2021/08/05 09:01:50;;;;;;;5.93;2.08;;;;;;;26.23;45.50;98228.69;4978982;28;20032;-66
2021/08/05 09:04:17;;;;;;;3.30;1.83;;;;;;;27.14;44.42;98220.72;4988609;28;20030;-66
2021/08/05 09:06:44;;;;;;;4.32;1.90;;;;;;;25.77;46.46;98219.63;4989416;28;20377;-73
2021/08/05 09:09:10;;;;;;;3.67;1.95;;;;;;;25.93;46.14;98227.56;4992635;28;20057;-67
2021/08/05 09:11:35;;;;;;;2.55;1.88;;;;;;;25.87;47.16;98215.81;4987398;28;20051;-67
2021/08/05 09:14:01;;;;;;;7.85;1.95;;;;;;;26.54;45.40;98217.56;4972565;28;20033;-67
2021/08/05 09:16:30;;;;;;;6.35;2.00;;;;;;;26.21;46.54;98209.59;4965950;28;20460;-67
2021/08/05 09:19:23;;;;;;;4.43;2.22;;;;;;;27.58;42.78;98210.41;4983895;28;20522;-67
2021/08/05 09:22:00;;;;;;;3.85;2.00;;;;;;;27.72;43.23;98216.59;4970507;28;20050;-68
2021/08/05 09:24:27;;;;;;;2.40;1.80;;;;;;;26.59;44.70;98194.38;4974332;28;20023;-67
2021/08/05 09:26:56;;;;;;;4.10;1.98;;;;;;;26.82;44.57;98222.81;4991911;28;20225;-67
2021/08/05 09:29:23;;;;;;;5.18;1.80;;;;;;;26.91;42.83;98215.34;4990786;28;20033;-68
2021/08/05 09:31:51;;;;;;;2.50;1.50;;;;;;;26.65;41.47;98218.06;4987409;28;20053;-68
2021/08/05 09:34:20;;;;;;;4.32;1.40;;;;;;;27.10;42.27;98224.16;4973525;28;20023;-67
2021/08/05 09:36:46;;;;;;;;;;;;;;;27.35;42.22;98215.34;4978942;28;20018;-67
2021/08/05 09:39:27;;;;;;;3.10;1.80;;;;;;;27.63;41.60;98219.38;4981918;28;19941;-67
2021/08/05 09:41:59;;;;;;;4.00;2.15;;;;;;;27.77;41.17;98213.63;4987715;28;20057;-69
2021/08/05 09:44:28;;;;;;;5.13;1.80;;;;;;;27.57;41.51;98212.38;4992003;28;20029;-68
2021/08/05 09:47:03;;;;;;;3.53;2.10;;;;;;;26.91;42.82;98201.44;4985086;28;20030;-71
2021/08/05 09:49:29;;;;;;;4.13;2.15;;;;;;;27.58;41.38;98211.22;4956261;28;20381;-72
2021/08/05 09:51:58;;;;;;;4.28;2.08;;;;;;;27.11;43.45;98200.78;4973343;28;20540;-66
2021/08/05 09:54:35;;;;;;;;;;;;;;;27.27;42.33;98212.25;4987793;28;20380;-65
2021/08/05 09:57:00;;;;;;;5.78;2.13;;;;;;;27.25;42.36;98213.75;4977118;28;20344;-69
2021/08/05 09:59:26;;;;;;;4.43;1.90;;;;;;;26.77;43.17;98203.53;4988288;28;20036;-68
2021/08/05 10:02:03;;;;;;;3.63;1.85;;;;;;;26.54;44.55;98197.31;4983902;28;20376;-67
2021/08/05 10:04:33;;;;;;;3.67;1.83;;;;;;;28.45;40.04;98202.59;4985491;28;20137;-67
2021/08/05 10:07:07;;;;;;;3.03;1.88;;;;;;;31.04;37.15;98179.84;4970644;28;20026;-69
2021/08/05 10:09:34;;;;;;;2.88;1.90;;;;;;;32.57;32.72;98181.53;4972931;28;20493;-69
2021/08/05 10:12:21;;;;;;;2.03;1.50;;;;;;;34.45;29.22;98180.88;4987126;28;20042;-74
2021/08/05 10:14:51;;;;;;;3.75;1.60;;;;;;;33.89;30.35;98175.09;4992692;28;20385;-73
2021/08/05 10:17:18;;;;;;;2.63;1.85;;;;;;;34.24;29.85;98186.97;4990419;28;20023;-71
2021/08/05 10:19:47;;;;;;;2.67;1.80;;;;;;;31.64;31.85;98138.81;4974809;28;20030;-73
2021/08/05 10:22:17;;;;;;;3.28;1.45;;;;;;;31.75;33.20;98177.44;4985557;28;20780;-66
2021/08/05 10:24:48;;;;;;;4.63;1.83;;;;;;;31.84;32.32;98176.13;4992186;28;20433;-65
2021/08/05 10:27:15;;;;;;;4.13;1.30;;;;;;;31.60;32.84;98173.47;4992468;28;20057;-65
2021/08/05 10:29:42;;;;;;;3.47;1.50;;;;;;;28.52;38.20;98150.03;4993386;28;20037;-65
2021/08/05 10:32:09;;;;;;;2.42;1.60;;;;;;;29.95;36.48;98170.34;4974477;28;20050;-66
2021/08/05 10:34:37;;;;;;;2.67;1.40;;;;;;;31.28;34.56;98164.97;4990284;28;20045;-66
2021/08/05 10:37:05;;;;;;;2.33;1.40;;;;;;;33.43;31.52;98153.34;4975605;28;20488;-64
2021/08/05 10:39:31;;;;;;;2.47;1.45;;;;;;;33.68;29.87;98162.28;4992770;28;20034;-63
2021/08/05 10:42:01;;;;;;;4.40;1.90;;;;;;;32.43;32.24;98157.59;4988624;28;20030;-64
2021/08/05 10:44:27;;;;;;;3.15;1.33;;;;;;;32.18;32.07;98153.41;4991924;28;20026;-63
2021/08/05 10:46:56;;;;;;;2.10;1.60;;;;;;;31.21;32.57;98150.81;4990935;28;20026;-65
2021/08/05 10:49:22;;;;;;;2.85;1.45;;;;;;;32.12;31.78;98138.84;4992878;28;20080;-65
2021/08/05 10:51:49;;;;;;;2.53;1.25;;;;;;;32.23;31.83;98125.94;4982996;28;20038;-65
2021/08/05 10:54:47;;;;;;;2.50;1.58;;;;;;;31.14;32.78;98134.63;4973423;28;20033;-65
2021/08/05 10:57:16;;;;;;;1.85;1.27;;;;;;;29.45;35.19;98141.56;4974449;28;20125;-65
2021/08/05 11:00:13;;;;;;;3.30;1.55;;;;;;;28.33;38.21;98136.53;4991153;28;20039;-65
2021/08/05 11:02:43;;;;;;;2.78;1.10;;;;;;;28.95;37.17;98125.78;4964210;28;20026;-65
2021/08/05 11:05:09;;;;;;;1.50;1.10;;;;;;;31.26;33.63;98110.59;4978634;28;20084;-65
2021/08/05 11:07:35;;;;;;;3.15;1.00;;;;;;;33.00;31.60;98109.63;4992335;28;20022;-65
2021/08/05 11:10:25;;;;;;;2.63;1.55;;;;;;;33.05;30.64;98109.38;4982347;28;20107;-64
2021/08/05 11:12:56;;;;;;;1.90;1.48;;;;;;;33.26;29.88;98108.97;4972614;28;20046;-64
2021/08/05 11:15:22;;;;;;;2.55;1.55;;;;;;;33.54;29.38;98101.13;4989311;28;20038;-63
2021/08/05 11:18:06;;;;;;;3.38;1.40;;;;;;;32.05;31.75;98108.72;4992015;28;20034;-65
2021/08/05 11:20:35;;;;;;;3.60;1.50;;;;;;;32.45;31.57;98110.44;4982028;28;20034;-64
2021/08/05 11:23:01;;;;;;;1.70;1.30;;;;;;;32.89;31.06;98095.41;4974361;28;20038;-64
2021/08/05 11:25:49;;;;;;;3.65;1.60;;;;;;;28.61;36.49;98109.03;4973782;28;20034;-64
2021/08/05 11:28:21;;;;;;;4.57;1.65;;;;;;;27.53;38.92;98109.41;4990320;28;20042;-62
2021/08/05 11:30:49;;;;;;;1.67;1.25;;;;;;;29.11;36.59;98103.69;4993507;28;20117;-67
2021/08/05 11:33:33;;;;;;;1.85;1.45;;;;;;;30.86;34.51;98091.91;4984931;28;20030;-67
2021/08/05 11:36:15;;;;;;;2.22;1.30;;;;;;;32.72;30.50;98094.69;4994143;28;21046;-68